createdAt,value
2019-04-30T00:00:20.357Z,8.20
2019-04-30T00:03:41.594Z,11.90
2019-04-30T00:06:45.606Z,7.23
2019-04-30T00:09:54.058Z,7.30
2019-04-30T00:12:55.531Z,7.57
2019-04-30T00:16:01.607Z,8.97
2019-04-30T00:19:06.156Z,8.20
2019-04-30T00:22:10.409Z,7.93
2019-04-30T00:25:15.293Z,6.30
2019-04-30T00:28:19.540Z,6.87
2019-04-30T00:31:25.679Z,8.10
2019-04-30T00:34:30.941Z,9.50
2019-04-30T00:37:35.258Z,7.23
2019-04-30T00:40:39.171Z,4.97
2019-04-30T00:43:49.308Z,7.40
2019-04-30T00:46:48.292Z,10.23
2019-04-30T00:49:56.323Z,7.00
2019-04-30T00:52:57.898Z,5.67
2019-04-30T00:56:01.951Z,11.73
2019-04-30T00:59:07.181Z,6.77
2019-04-30T01:02:31.923Z,6.97
2019-04-30T01:05:33.008Z,10.87
2019-04-30T01:08:36.682Z,5.43
2019-04-30T01:11:46.766Z,5.83
2019-04-30T01:14:45.999Z,9.50
2019-04-30T01:17:53.609Z,8.60
2019-04-30T01:20:55.560Z,5.07
2019-04-30T01:23:59.579Z,5.77
2019-04-30T01:27:06.718Z,7.43
2019-04-30T01:30:13.258Z,8.10
2019-04-30T01:33:15.704Z,6.33
2019-04-30T01:36:19.397Z,5.70
2019-04-30T01:39:23.770Z,6.37
2019-04-30T01:42:28.566Z,8.67
2019-04-30T01:45:32.505Z,11.47
2019-04-30T01:48:36.177Z,6.77
2019-04-30T01:51:39.860Z,5.87
2019-04-30T01:54:43.556Z,8.90
2019-04-30T01:57:59.237Z,14.27
2019-04-30T02:01:06.967Z,7.90
2019-04-30T02:04:10.656Z,6.33
2019-04-30T02:07:14.363Z,7.97
2019-04-30T02:10:18.770Z,7.90
2019-04-30T02:13:22.434Z,5.90
2019-04-30T02:16:26.133Z,9.40
2019-04-30T02:19:31.232Z,5.80
2019-04-30T02:22:34.969Z,6.60
2019-04-30T02:25:39.916Z,9.33
2019-04-30T02:28:43.728Z,7.80
2019-04-30T02:31:50.114Z,9.00
2019-04-30T02:35:01.915Z,7.47
2019-04-30T02:38:12.129Z,6.43
2019-04-30T02:41:19.263Z,7.37
2019-04-30T02:44:24.236Z,5.30
2019-04-30T02:47:30.894Z,7.63
2019-04-30T02:50:35.743Z,6.97
2019-04-30T02:54:23.699Z,9.17
2019-04-30T02:57:25.169Z,9.07
2019-04-30T03:00:32.544Z,7.77
2019-04-30T03:03:34.295Z,7.30
2019-04-30T03:06:40.285Z,9.47
2019-04-30T03:09:44.390Z,8.27
2019-04-30T03:12:49.888Z,9.47
2019-04-30T03:15:53.497Z,6.27
2019-04-30T03:19:19.661Z,5.97
2019-04-30T03:22:25.790Z,7.17
2019-04-30T03:25:29.862Z,9.50
2019-04-30T03:28:34.080Z,7.10
2019-04-30T03:31:42.852Z,6.03
2019-04-30T03:34:43.562Z,7.03
2019-04-30T03:37:49.550Z,7.50
2019-04-30T03:40:52.644Z,6.40
2019-04-30T03:43:56.612Z,7.20
2019-04-30T03:47:00.306Z,7.30
2019-04-30T03:50:04.395Z,8.33
2019-04-30T03:53:10.456Z,9.53
2019-04-30T03:56:13.910Z,7.13
2019-04-30T03:59:19.925Z,7.47
2019-04-30T04:02:40.709Z,7.40
2019-04-30T04:05:51.784Z,6.60
2019-04-30T04:09:00.672Z,9.00
2019-04-30T04:12:23.265Z,11.07
2019-04-30T04:15:26.967Z,10.57
2019-04-30T04:18:30.643Z,9.83
2019-04-30T04:21:34.334Z,6.37
2019-04-30T04:24:40.096Z,7.33
2019-04-30T04:27:43.454Z,9.33
2019-04-30T04:30:50.293Z,7.43
2019-04-30T04:33:52.989Z,8.07
2019-04-30T04:36:56.692Z,8.90
2019-04-30T04:40:00.407Z,8.90
2019-04-30T04:43:04.193Z,7.07
2019-04-30T04:46:09.232Z,8.90
2019-04-30T04:49:13.147Z,13.87
2019-04-30T04:52:17.239Z,11.03
2019-04-30T04:55:22.248Z,9.70
2019-04-30T04:58:26.491Z,9.73
2019-04-30T05:01:30.206Z,9.50
2019-04-30T05:04:34.168Z,9.77
2019-04-30T05:07:39.975Z,11.80
2019-04-30T05:10:43.895Z,11.13
2019-04-30T05:13:48.995Z,13.33
2019-04-30T05:16:53.029Z,13.83
2019-04-30T05:19:58.678Z,17.27
2019-04-30T05:23:02.574Z,14.83
2019-04-30T05:26:08.453Z,16.60
2019-04-30T05:29:12.037Z,17.77
2019-04-30T05:32:15.816Z,19.33
2019-04-30T05:35:19.564Z,18.40
2019-04-30T05:38:23.266Z,16.80
2019-04-30T05:41:28.796Z,18.53
2019-04-30T05:44:32.453Z,22.80
2019-04-30T05:47:36.156Z,20.10
2019-04-30T05:50:39.870Z,25.80
2019-04-30T05:53:43.570Z,30.97
2019-04-30T05:56:47.279Z,26.40
2019-04-30T05:59:51.267Z,28.50
2019-04-30T06:02:55.323Z,24.53
2019-04-30T06:05:59.055Z,27.83
2019-04-30T06:09:14.766Z,26.80
2019-04-30T06:12:36.418Z,30.63
2019-04-30T06:15:48.991Z,28.40
2019-04-30T06:18:52.859Z,26.07
2019-04-30T06:22:05.815Z,25.40
2019-04-30T06:25:02.002Z,26.70
2019-04-30T06:28:05.772Z,27.70
2019-04-30T06:31:09.552Z,26.17
2019-04-30T06:34:13.589Z,24.37
2019-04-30T06:37:19.297Z,25.60
2019-04-30T06:40:23.322Z,26.07
2019-04-30T06:43:28.755Z,23.40
2019-04-30T06:46:32.809Z,26.77
2019-04-30T06:49:39.093Z,23.23
2019-04-30T06:52:53.756Z,24.33
2019-04-30T06:55:49.278Z,27.87
2019-04-30T06:58:53.416Z,25.50
2019-04-30T07:01:58.964Z,23.77
2019-04-30T07:05:02.749Z,26.77
2019-04-30T07:08:36.391Z,24.60
2019-04-30T07:11:33.635Z,25.00
2019-04-30T07:14:39.995Z,23.57
2019-04-30T07:17:43.090Z,29.57
2019-04-30T07:20:48.499Z,26.10
2019-04-30T07:23:52.540Z,28.20
2019-04-30T07:27:01.030Z,25.70
2019-04-30T07:30:39.569Z,25.50
2019-04-30T07:33:43.394Z,24.10
2019-04-30T07:36:55.149Z,21.90
2019-04-30T07:39:52.644Z,27.43
2019-04-30T07:42:58.932Z,28.67
2019-04-30T07:46:02.284Z,22.43
2019-04-30T07:49:05.988Z,25.10
2019-04-30T07:52:11.585Z,27.80
2019-04-30T07:55:15.392Z,20.97
2019-04-30T07:58:20.420Z,21.70
2019-04-30T08:01:24.472Z,22.53
2019-04-30T08:05:02.377Z,26.90
2019-04-30T08:08:20.126Z,23.20
2019-04-30T08:11:23.120Z,23.70
2019-04-30T08:14:18.488Z,25.63
2019-04-30T08:17:22.723Z,22.97
2019-04-30T08:20:26.433Z,24.77
2019-04-30T08:23:34.864Z,23.13
2019-04-30T08:26:35.660Z,26.13
2019-04-30T08:29:39.565Z,20.77
2019-04-30T08:32:43.336Z,23.87
2019-04-30T08:35:47.312Z,21.73
2019-04-30T08:38:51.032Z,18.47
2019-04-30T08:41:55.005Z,21.03
2019-04-30T08:44:58.876Z,19.83
2019-04-30T08:48:02.588Z,17.40
2019-04-30T08:51:06.458Z,16.27
2019-04-30T08:54:10.163Z,20.03
2019-04-30T08:57:13.881Z,21.27
2019-04-30T09:00:19.489Z,16.30
2019-04-30T09:03:23.514Z,17.73
2019-04-30T09:06:28.956Z,22.40
2019-04-30T09:09:33.336Z,18.93
2019-04-30T09:12:37.056Z,16.57
2019-04-30T09:15:40.764Z,14.40
2019-04-30T09:18:44.485Z,18.73
2019-04-30T09:21:48.888Z,15.13
2019-04-30T09:24:52.776Z,14.37
2019-04-30T09:27:56.487Z,19.57
2019-04-30T09:31:00.184Z,15.57
2019-04-30T09:34:14.336Z,13.17
2019-04-30T09:37:09.421Z,15.13
2019-04-30T09:40:17.957Z,13.00
2019-04-30T09:43:18.913Z,14.77
2019-04-30T09:46:27.047Z,14.97
2019-04-30T09:49:29.435Z,14.07
2019-04-30T09:52:35.903Z,16.80
2019-04-30T09:55:40.542Z,11.60
2019-04-30T09:58:44.385Z,12.33
2019-04-30T10:01:48.220Z,15.83
2019-04-30T10:04:52.351Z,11.77
2019-04-30T10:07:56.593Z,15.17
2019-04-30T10:11:25.310Z,13.80
2019-04-30T10:14:29.017Z,15.13
2019-04-30T10:17:40.628Z,11.13
2019-04-30T10:20:45.119Z,13.67
2019-04-30T10:23:49.929Z,11.87
2019-04-30T10:26:53.722Z,12.10
2019-04-30T10:29:59.265Z,18.17
2019-04-30T10:33:03.017Z,12.70
2019-04-30T10:36:06.795Z,11.73
2019-04-30T10:39:11.092Z,16.77
2019-04-30T10:42:14.756Z,11.87
2019-04-30T10:45:18.811Z,10.70
2019-04-30T10:48:22.508Z,10.27
2019-04-30T10:51:26.452Z,8.77
2019-04-30T10:54:30.484Z,9.97
2019-04-30T10:57:34.199Z,10.67
2019-04-30T11:00:40.232Z,9.20
2019-04-30T11:03:43.914Z,11.17
2019-04-30T11:06:47.767Z,10.77
2019-04-30T11:09:51.867Z,10.50
2019-04-30T11:12:55.551Z,10.63
2019-04-30T11:16:11.877Z,13.03
2019-04-30T11:19:05.069Z,9.20
2019-04-30T11:22:09.083Z,8.20
2019-04-30T11:25:13.394Z,11.70
2019-04-30T11:28:17.805Z,8.88
2019-04-30T11:31:46.490Z,8.38
2019-04-30T11:34:50.406Z,11.08
2019-04-30T11:37:54.186Z,13.55
2019-04-30T11:40:59.143Z,12.50
2019-04-30T11:44:02.839Z,8.30
2019-04-30T11:47:29.124Z,11.43
2019-04-30T11:50:33.153Z,11.80
2019-04-30T11:53:38.920Z,12.33
2019-04-30T11:56:42.426Z,8.53
2019-04-30T11:59:46.598Z,8.75
2019-04-30T12:02:52.807Z,10.00
2019-04-30T12:05:55.766Z,9.45
2019-04-30T12:09:09.683Z,12.40
2019-04-30T12:12:13.383Z,14.73
2019-04-30T12:15:19.101Z,9.80
2019-04-30T12:18:22.904Z,11.43
2019-04-30T12:21:26.870Z,12.88
2019-04-30T12:24:30.577Z,10.20
2019-04-30T12:27:34.647Z,11.38
2019-04-30T12:30:39.130Z,9.95
2019-04-30T12:33:42.964Z,11.12
2019-04-30T12:36:46.640Z,13.90
2019-04-30T12:39:50.335Z,13.35
2019-04-30T12:42:54.028Z,8.80
2019-04-30T12:46:04.895Z,10.65
2019-04-30T12:49:11.454Z,11.63
2019-04-30T12:52:19.970Z,11.73
2019-04-30T12:55:41.215Z,13.22
2019-04-30T12:58:44.914Z,9.87
2019-04-30T13:01:49.552Z,10.73
2019-04-30T13:04:53.288Z,9.77
2019-04-30T13:07:59.915Z,11.33
2019-04-30T13:11:03.355Z,9.40
2019-04-30T13:14:10.111Z,10.03
2019-04-30T13:17:12.855Z,10.50
2019-04-30T13:20:20.850Z,11.70
2019-04-30T13:23:22.545Z,14.00
2019-04-30T13:26:26.249Z,13.17
2019-04-30T13:29:35.106Z,14.13
2019-04-30T13:32:45.462Z,16.07
2019-04-30T13:35:49.239Z,12.40
2019-04-30T13:39:01.923Z,13.50
2019-04-30T13:42:17.667Z,11.80
2019-04-30T13:45:15.531Z,15.70
2019-04-30T13:48:19.907Z,18.57
2019-04-30T13:51:23.608Z,18.37
2019-04-30T13:54:27.324Z,18.93
2019-04-30T13:57:31.020Z,20.77
2019-04-30T14:00:34.793Z,22.90
2019-04-30T14:03:44.756Z,20.17
2019-04-30T14:07:06.361Z,16.10
2019-04-30T14:10:10.488Z,18.00
2019-04-30T14:13:14.299Z,21.80
2019-04-30T14:16:18.073Z,22.03
2019-04-30T14:19:21.861Z,24.13
2019-04-30T14:22:25.561Z,20.03
2019-04-30T14:25:29.445Z,23.63
2019-04-30T14:28:33.507Z,23.37
2019-04-30T14:31:38.810Z,27.27
2019-04-30T14:34:43.109Z,25.33
2019-04-30T14:37:46.970Z,22.03
2019-04-30T14:40:51.665Z,25.03
2019-04-30T14:44:02.160Z,21.97
2019-04-30T14:47:14.218Z,23.43
2019-04-30T14:50:19.568Z,27.67
2019-04-30T14:53:32.592Z,26.27
2019-04-30T14:56:41.418Z,23.17
2019-04-30T15:00:06.031Z,27.27
2019-04-30T15:03:11.670Z,25.20
2019-04-30T15:06:15.460Z,30.07
2019-04-30T15:09:20.041Z,26.63
2019-04-30T15:12:23.820Z,24.70
2019-04-30T15:15:29.236Z,26.83
2019-04-30T15:18:33.283Z,22.63
2019-04-30T15:21:36.999Z,23.60
2019-04-30T15:24:40.788Z,30.43
2019-04-30T15:27:47.642Z,25.50
2019-04-30T15:30:50.719Z,25.10
2019-04-30T15:34:03.063Z,25.03
2019-04-30T15:37:18.518Z,27.57
2019-04-30T15:40:11.828Z,26.87
2019-04-30T15:43:15.535Z,23.80
2019-04-30T15:46:19.314Z,32.30
2019-04-30T15:49:23.068Z,24.87
2019-04-30T15:52:28.797Z,21.27
2019-04-30T15:55:32.257Z,22.03
2019-04-30T15:58:38.899Z,25.63
2019-04-30T16:01:43.760Z,23.63
2019-04-30T16:05:06.493Z,24.57
2019-04-30T16:08:41.760Z,28.83
2019-04-30T16:11:54.124Z,24.03
2019-04-30T16:14:57.824Z,23.73
2019-04-30T16:18:02.119Z,29.67
2019-04-30T16:21:05.819Z,24.67
2019-04-30T16:24:09.772Z,29.93
2019-04-30T16:27:13.471Z,30.73
2019-04-30T16:30:19.553Z,31.63
2019-04-30T16:33:23.416Z,26.77
2019-04-30T16:36:29.036Z,29.23
2019-04-30T16:39:32.825Z,25.13
2019-04-30T16:42:38.918Z,23.67
2019-04-30T16:45:42.605Z,25.20
2019-04-30T16:48:46.635Z,29.03
2019-04-30T16:51:50.468Z,28.23
2019-04-30T16:54:54.181Z,28.13
2019-04-30T16:57:58.548Z,29.93
2019-04-30T17:01:04.053Z,28.43
2019-04-30T17:04:16.180Z,27.23
2019-04-30T17:07:30.895Z,27.60
2019-04-30T17:10:41.051Z,26.03
2019-04-30T17:13:51.733Z,29.47
2019-04-30T17:16:55.432Z,29.67
2019-04-30T17:19:59.141Z,27.63
2019-04-30T17:23:02.845Z,27.23
2019-04-30T17:26:06.881Z,30.10
2019-04-30T17:29:10.589Z,29.37
2019-04-30T17:32:14.292Z,28.13
2019-04-30T17:35:19.033Z,30.20
2019-04-30T17:38:22.928Z,26.07
2019-04-30T17:41:26.637Z,27.77
2019-04-30T17:44:30.350Z,28.70
2019-04-30T17:47:34.310Z,26.93
2019-04-30T17:50:39.619Z,31.33
2019-04-30T17:54:01.368Z,28.57
2019-04-30T17:57:05.413Z,28.93
2019-04-30T18:00:18.925Z,29.13
2019-04-30T18:03:18.959Z,29.90
2019-04-30T18:06:22.873Z,32.00
2019-04-30T18:09:26.677Z,30.77
2019-04-30T18:12:30.805Z,37.53
2019-04-30T18:15:34.525Z,34.57
2019-04-30T18:18:51.214Z,29.80
2019-04-30T18:21:59.678Z,32.03
2019-04-30T18:25:20.720Z,30.67
2019-04-30T18:28:24.705Z,32.77
2019-04-30T18:31:29.811Z,32.27
2019-04-30T18:34:33.615Z,31.23
2019-04-30T18:37:38.708Z,29.57
2019-04-30T18:40:42.517Z,37.57
2019-04-30T18:43:48.736Z,37.83
2019-04-30T18:46:52.758Z,31.43
2019-04-30T18:49:56.465Z,38.93
2019-04-30T18:53:02.708Z,36.83
2019-04-30T18:56:09.960Z,42.70
2019-04-30T18:59:11.945Z,40.00
2019-04-30T19:02:15.715Z,39.93
2019-04-30T19:05:25.730Z,31.40
2019-04-30T19:08:35.040Z,31.63
2019-04-30T19:11:54.357Z,34.47
2019-04-30T19:15:08.149Z,35.83
2019-04-30T19:18:25.922Z,38.00
2019-04-30T19:21:30.108Z,35.40
2019-04-30T19:24:33.808Z,32.17
2019-04-30T19:27:37.514Z,36.00
2019-04-30T19:30:41.374Z,34.23
2019-04-30T19:33:45.391Z,34.27
2019-04-30T19:36:49.351Z,33.00
2019-04-30T19:39:53.132Z,33.77
2019-04-30T19:42:56.845Z,37.87
2019-04-30T19:46:00.835Z,38.63
2019-04-30T19:49:04.718Z,34.53
2019-04-30T19:52:11.125Z,33.97
2019-04-30T19:55:13.937Z,35.13
2019-04-30T19:58:27.753Z,34.20
2019-04-30T20:01:23.070Z,35.27
2019-04-30T20:04:33.048Z,36.17
2019-04-30T20:07:32.217Z,33.80
2019-04-30T20:10:35.942Z,35.00
2019-04-30T20:13:40.524Z,36.33
2019-04-30T20:16:44.211Z,38.10
2019-04-30T20:19:48.926Z,36.10
2019-04-30T20:22:52.981Z,39.17
2019-04-30T20:25:56.678Z,51.87
2019-04-30T20:29:00.715Z,41.73
2019-04-30T20:32:04.483Z,41.37
2019-04-30T20:35:09.756Z,41.27
2019-04-30T20:38:22.115Z,41.03
2019-04-30T20:41:28.611Z,39.30
2019-04-30T20:44:32.396Z,36.07
2019-04-30T20:47:36.097Z,42.27
2019-04-30T20:50:39.809Z,36.00
2019-04-30T20:53:43.516Z,42.73
2019-04-30T20:56:48.347Z,40.63
2019-04-30T20:59:52.902Z,38.07
2019-04-30T21:02:56.685Z,38.17
2019-04-30T21:06:00.692Z,42.47
2019-04-30T21:09:06.150Z,44.07
2019-04-30T21:12:09.845Z,47.63
2019-04-30T21:15:13.933Z,39.90
2019-04-30T21:18:19.387Z,41.97
2019-04-30T21:21:23.109Z,42.90
2019-04-30T21:24:26.819Z,39.43
2019-04-30T21:27:30.632Z,40.63
2019-04-30T21:30:34.407Z,40.30
2019-04-30T21:33:43.124Z,42.57
2019-04-30T21:36:46.860Z,45.50
2019-04-30T21:39:50.587Z,55.97
2019-04-30T21:42:54.284Z,49.50
2019-04-30T21:45:59.411Z,42.87
2019-04-30T21:49:03.189Z,49.47
2019-04-30T21:52:06.887Z,53.10
2019-04-30T21:55:12.499Z,44.37
2019-04-30T21:58:16.285Z,57.67
2019-04-30T22:01:24.708Z,57.07
2019-04-30T22:04:28.513Z,60.90
2019-04-30T22:07:32.308Z,65.93
2019-04-30T22:10:36.340Z,73.23
2019-04-30T22:13:43.106Z,65.03
2019-04-30T22:16:46.446Z,67.80
2019-04-30T22:19:51.711Z,64.17
2019-04-30T22:22:55.612Z,61.57
2019-04-30T22:25:59.949Z,71.47
2019-04-30T22:29:03.857Z,61.30
2019-04-30T22:32:09.238Z,62.03
2019-04-30T22:35:31.276Z,53.63
2019-04-30T22:38:39.132Z,52.30
2019-04-30T22:41:42.951Z,57.10
2019-04-30T22:44:46.843Z,56.90
2019-04-30T22:47:50.579Z,56.40
2019-04-30T22:50:54.305Z,63.93
2019-04-30T22:53:58.109Z,68.60
2019-04-30T22:57:01.816Z,56.80
2019-04-30T23:00:09.704Z,53.97
2019-04-30T23:03:20.090Z,56.50
2019-04-30T23:06:24.230Z,55.80
2019-04-30T23:09:27.933Z,51.03
2019-04-30T23:12:31.714Z,44.77
2019-04-30T23:15:36.037Z,52.97
2019-04-30T23:18:39.736Z,51.63
2019-04-30T23:21:43.476Z,40.83
2019-04-30T23:24:47.472Z,46.83
2019-04-30T23:27:51.277Z,47.13
2019-04-30T23:30:55.060Z,41.50
2019-04-30T23:33:58.818Z,44.10
2019-04-30T23:37:02.890Z,43.07
2019-04-30T23:40:31.054Z,43.03
2019-04-30T23:43:34.775Z,40.23
2019-04-30T23:46:38.508Z,41.37
2019-04-30T23:49:42.289Z,39.10
2019-04-30T23:52:46.611Z,41.70
2019-04-30T23:55:50.382Z,40.17
2019-04-30T23:58:54.205Z,39.87
